sensor_id;sensor_type;location;lat;lon;timestamp;pressure;altitude;pressure_sealevel;temperature;humidity
15260;BME280;34462;51.368;12.364;2024-01-15T00:01:32;18596.66;;;-141.84;75.85
15260;BME280;34462;51.368;12.364;2024-01-15T00:04:01;18562.09;;;-141.84;75.56
15260;BME280;34462;51.368;12.364;2024-01-15T00:06:29;18484.91;;;-141.84;75.02
15260;BME280;34462;51.368;12.364;2024-01-15T00:09:00;18509.28;;;-141.84;74.80
15260;BME280;34462;51.368;12.364;2024-01-15T00:11:28;18486.94;;;-141.84;75.10
15260;BME280;34462;51.368;12.364;2024-01-15T00:13:57;18499.13;;;-141.84;74.73
15260;BME280;34462;51.368;12.364;2024-01-15T00:16:26;18519.44;;;-141.84;75.31
15260;BME280;34462;51.368;12.364;2024-01-15T00:18:54;18553.97;;;-141.84;75.70
15260;BME280;34462;51.368;12.364;2024-01-15T00:21:22;18517.41;;;-141.84;75.15
15260;BME280;34462;51.368;12.364;2024-01-15T00:23:51;18486.94;;;-141.84;75.05
15260;BME280;34462;51.368;12.364;2024-01-15T00:26:19;18486.94;;;-141.84;75.01
15260;BME280;34462;51.368;12.364;2024-01-15T00:28:47;18535.69;;;-141.84;75.15
15260;BME280;34462;51.368;12.364;2024-01-15T00:31:17;18460.53;;;-141.84;74.44
15260;BME280;34462;51.368;12.364;2024-01-15T00:33:46;18488.97;;;-141.84;74.47
15260;BME280;34462;51.368;12.364;2024-01-15T00:36:14;18493.03;;;-141.84;75.19
15260;BME280;34462;51.368;12.364;2024-01-15T00:38:44;18556.00;;;-141.84;75.57
15260;BME280;34462;51.368;12.364;2024-01-15T00:41:14;18533.66;;;-141.84;75.29
15260;BME280;34462;51.368;12.364;2024-01-15T00:43:42;18566.16;;;-141.84;76.12
15260;BME280;34462;51.368;12.364;2024-01-15T00:46:11;18582.44;;;-141.84;75.85
15260;BME280;34462;51.368;12.364;2024-01-15T00:48:44;18582.44;;;-141.84;75.82
15260;BME280;34462;51.368;12.364;2024-01-15T00:51:14;18470.69;;;-141.84;74.94
15260;BME280;34462;51.368;12.364;2024-01-15T00:53:42;18521.47;;;-141.84;75.49
15260;BME280;34462;51.368;12.364;2024-01-15T00:56:10;18584.47;;;-141.84;75.43
15260;BME280;34462;51.368;12.364;2024-01-15T00:58:38;18556.00;;;-141.84;75.15
15260;BME280;34462;51.368;12.364;2024-01-15T01:01:07;18572.25;;;-141.84;75.58
15260;BME280;34462;51.368;12.364;2024-01-15T01:03:35;18499.13;;;-141.84;74.73
15260;BME280;34462;51.368;12.364;2024-01-15T01:06:05;18456.47;;;-141.84;74.34
15260;BME280;34462;51.368;12.364;2024-01-15T01:08:33;18468.66;;;-141.84;74.82
15260;BME280;34462;51.368;12.364;2024-01-15T01:11:02;18513.34;;;-141.84;75.16
15260;BME280;34462;51.368;12.364;2024-01-15T01:13:31;18505.22;;;-141.84;75.10
15260;BME280;34462;51.368;12.364;2024-01-15T01:15:59;18488.97;;;-141.84;74.75
15260;BME280;34462;51.368;12.364;2024-01-15T01:18:27;18468.66;;;-141.84;74.68
15260;BME280;34462;51.368;12.364;2024-01-15T01:20:55;18525.53;;;-141.84;75.58
15260;BME280;34462;51.368;12.364;2024-01-15T01:23:25;18539.75;;;-141.84;75.19
15260;BME280;34462;51.368;12.364;2024-01-15T01:25:53;18521.47;;;-141.84;75.12
15260;BME280;34462;51.368;12.364;2024-01-15T01:28:21;18501.16;;;-141.84;74.95
15260;BME280;34462;51.368;12.364;2024-01-15T01:30:49;18480.84;;;-141.84;75.09
15260;BME280;34462;51.368;12.364;2024-01-15T01:33:18;18519.44;;;-141.84;75.42
15260;BME280;34462;51.368;12.364;2024-01-15T01:35:47;18537.72;;;-141.84;75.27
15260;BME280;34462;51.368;12.364;2024-01-15T01:38:15;18464.59;;;-141.84;74.42
15260;BME280;34462;51.368;12.364;2024-01-15T01:40:45;18456.47;;;-141.84;74.29
15260;BME280;34462;51.368;12.364;2024-01-15T01:43:13;18403.63;;;-141.84;73.43
15260;BME280;34462;51.368;12.364;2024-01-15T01:45:41;18399.56;;;-141.84;73.03
15260;BME280;34462;51.368;12.364;2024-01-15T01:48:10;18395.50;;;-141.84;73.20
15260;BME280;34462;51.368;12.364;2024-01-15T01:50:38;18379.25;;;-141.84;72.18
15260;BME280;34462;51.368;12.364;2024-01-15T01:53:07;18336.59;;;-141.84;71.70
15260;BME280;34462;51.368;12.364;2024-01-15T01:55:38;18387.38;;;-141.84;73.28
15260;BME280;34462;51.368;12.364;2024-01-15T01:58:08;18417.84;;;-141.84;73.34
15260;BME280;34462;51.368;12.364;2024-01-15T02:00:37;18438.19;;;-141.84;74.17
15260;BME280;34462;51.368;12.364;2024-01-15T02:03:06;18456.47;;;-141.84;73.68
15260;BME280;34462;51.368;12.364;2024-01-15T02:05:36;18421.91;;;-141.84;74.02
15260;BME280;34462;51.368;12.364;2024-01-15T02:08:05;18478.81;;;-141.84;74.50
15260;BME280;34462;51.368;12.364;2024-01-15T02:10:33;18430.06;;;-141.84;73.84
15260;BME280;34462;51.368;12.364;2024-01-15T02:13:02;18452.41;;;-141.84;74.43
15260;BME280;34462;51.368;12.364;2024-01-15T02:15:32;18474.75;;;-141.84;74.85
15260;BME280;34462;51.368;12.364;2024-01-15T02:18:03;18438.19;;;-141.84;74.06
15260;BME280;34462;51.368;12.364;2024-01-15T02:20:33;18419.88;;;-141.84;73.90
15260;BME280;34462;51.368;12.364;2024-01-15T02:23:08;18397.53;;;-141.84;73.57
15260;BME280;34462;51.368;12.364;2024-01-15T02:25:40;18440.22;;;-141.84;73.48
15260;BME280;34462;51.368;12.364;2024-01-15T02:28:11;18405.66;;;-141.84;73.27
15260;BME280;34462;51.368;12.364;2024-01-15T02:30:41;18413.78;;;-141.84;73.22
15260;BME280;34462;51.368;12.364;2024-01-15T02:33:11;18423.94;;;-141.84;73.52
15260;BME280;34462;51.368;12.364;2024-01-15T02:35:41;18407.69;;;-141.84;73.50
15260;BME280;34462;51.368;12.364;2024-01-15T02:38:10;18434.13;;;-141.84;73.62
15260;BME280;34462;51.368;12.364;2024-01-15T02:40:39;18399.56;;;-141.84;73.10
15260;BME280;34462;51.368;12.364;2024-01-15T02:43:07;18411.75;;;-141.84;73.85
15260;BME280;34462;51.368;12.364;2024-01-15T02:45:35;18415.81;;;-141.84;73.09
15260;BME280;34462;51.368;12.364;2024-01-15T02:48:05;18423.94;;;-141.84;73.66
15260;BME280;34462;51.368;12.364;2024-01-15T02:50:33;18428.03;;;-141.84;73.38
15260;BME280;34462;51.368;12.364;2024-01-15T02:53:01;18436.16;;;-141.84;73.97
15260;BME280;34462;51.368;12.364;2024-01-15T02:55:31;18478.81;;;-141.84;74.06
15260;BME280;34462;51.368;12.364;2024-01-15T02:58:03;18411.75;;;-141.84;74.17
15260;BME280;34462;51.368;12.364;2024-01-15T03:00:33;18464.59;;;-141.84;74.03
15260;BME280;34462;51.368;12.364;2024-01-15T03:03:01;18482.88;;;-141.84;74.04
15260;BME280;34462;51.368;12.364;2024-01-15T03:05:29;18425.97;;;-141.84;73.46
15260;BME280;34462;51.368;12.364;2024-01-15T03:07:57;18428.03;;;-141.84;73.58
15260;BME280;34462;51.368;12.364;2024-01-15T03:10:26;18409.72;;;-141.84;73.85
15260;BME280;34462;51.368;12.364;2024-01-15T03:12:56;18464.59;;;-141.84;75.10
15260;BME280;34462;51.368;12.364;2024-01-15T03:15:25;18570.22;;;-141.84;75.43
15260;BME280;34462;51.368;12.364;2024-01-15T03:17:53;18515.38;;;-141.84;75.58
15260;BME280;34462;51.368;12.364;2024-01-15T03:20:21;18590.56;;;-141.84;76.49
15260;BME280;34462;51.368;12.364;2024-01-15T03:22:49;18588.53;;;-141.84;75.74
15260;BME280;34462;51.368;12.364;2024-01-15T03:25:18;18614.94;;;-141.84;76.39
15260;BME280;34462;51.368;12.364;2024-01-15T03:27:46;18533.66;;;-141.84;75.77
15260;BME280;34462;51.368;12.364;2024-01-15T03:30:16;18614.94;;;-141.84;76.72
15260;BME280;34462;51.368;12.364;2024-01-15T03:32:44;18643.38;;;-141.84;76.64
15260;BME280;34462;51.368;12.364;2024-01-15T03:35:14;18641.34;;;-141.84;76.47
15260;BME280;34462;51.368;12.364;2024-01-15T03:37:42;18673.84;;;-141.84;77.18
15260;BME280;34462;51.368;12.364;2024-01-15T03:40:12;18663.69;;;-141.84;77.30
15260;BME280;34462;51.368;12.364;2024-01-15T03:42:40;18653.53;;;-141.84;76.89
15260;BME280;34462;51.368;12.364;2024-01-15T03:45:09;18812.00;;;-141.84;78.11
15260;BME280;34462;51.368;12.364;2024-01-15T03:47:38;18846.56;;;-141.84;78.01
15260;BME280;34462;51.368;12.364;2024-01-15T03:50:08;18818.09;;;-141.84;77.92
15260;BME280;34462;51.368;12.364;2024-01-15T03:52:36;18905.47;;;-141.84;78.42
15260;BME280;34462;51.368;12.364;2024-01-15T03:55:06;18879.06;;;-141.84;78.29
15260;BME280;34462;51.368;12.364;2024-01-15T03:57:34;18897.34;;;-141.84;78.55
15260;BME280;34462;51.368;12.364;2024-01-15T04:00:06;18846.56;;;-141.84;78.26
15260;BME280;34462;51.368;12.364;2024-01-15T04:02:35;18954.25;;;-141.84;78.78
15260;BME280;34462;51.368;12.364;2024-01-15T04:05:05;18812.00;;;-141.84;78.04
15260;BME280;34462;51.368;12.364;2024-01-15T04:07:33;18856.72;;;-141.84;78.34
15260;BME280;34462;51.368;12.364;2024-01-15T04:10:02;18899.38;;;-141.84;78.25
15260;BME280;34462;51.368;12.364;2024-01-15T04:12:30;18710.44;;;-141.84;77.25
15260;BME280;34462;51.368;12.364;2024-01-15T04:14:58;18590.56;;;-141.84;76.46
15260;BME280;34462;51.368;12.364;2024-01-15T04:17:27;18529.59;;;-141.84;76.19
15260;BME280;34462;51.368;12.364;2024-01-15T04:19:56;18515.38;;;-141.84;75.72
15260;BME280;34462;51.368;12.364;2024-01-15T04:22:26;18566.16;;;-141.84;76.63
15260;BME280;34462;51.368;12.364;2024-01-15T04:24:54;18523.50;;;-141.84;75.63
15260;BME280;34462;51.368;12.364;2024-01-15T04:27:25;18570.22;;;-141.84;75.87
15260;BME280;34462;51.368;12.364;2024-01-15T04:29:53;18533.66;;;-141.84;76.02
15260;BME280;34462;51.368;12.364;2024-01-15T04:32:21;18621.03;;;-141.84;76.63
15260;BME280;34462;51.368;12.364;2024-01-15T04:34:50;18572.25;;;-141.84;76.06
15260;BME280;34462;51.368;12.364;2024-01-15T04:37:18;18669.78;;;-141.84;77.32
15260;BME280;34462;51.368;12.364;2024-01-15T04:39:48;18659.63;;;-141.84;77.06
15260;BME280;34462;51.368;12.364;2024-01-15T04:42:20;18578.38;;;-141.84;76.60
15260;BME280;34462;51.368;12.364;2024-01-15T04:44:48;18586.50;;;-141.84;76.75
15260;BME280;34462;51.368;12.364;2024-01-15T04:47:16;18551.94;;;-141.84;76.19
15260;BME280;34462;51.368;12.364;2024-01-15T04:49:45;18566.16;;;-141.84;76.35
15260;BME280;34462;51.368;12.364;2024-01-15T04:52:13;18480.84;;;-141.84;75.25
15260;BME280;34462;51.368;12.364;2024-01-15T04:54:41;18446.31;;;-141.84;74.94
15260;BME280;34462;51.368;12.364;2024-01-15T04:57:11;18423.94;;;-141.84;74.45
15260;BME280;34462;51.368;12.364;2024-01-15T04:59:39;18385.34;;;-141.84;73.64
15260;BME280;34462;51.368;12.364;2024-01-15T05:02:08;18385.34;;;-141.84;73.76
15260;BME280;34462;51.368;12.364;2024-01-15T05:04:36;18332.53;;;-141.84;72.62
15260;BME280;34462;51.368;12.364;2024-01-15T05:07:05;18334.56;;;-141.84;71.78
15260;BME280;34462;51.368;12.364;2024-01-15T05:09:33;18338.63;;;-141.84;72.07
15260;BME280;34462;51.368;12.364;2024-01-15T05:12:02;18318.31;;;-141.84;71.73
15260;BME280;34462;51.368;12.364;2024-01-15T05:14:32;18340.66;;;-141.84;71.53
15260;BME280;34462;51.368;12.364;2024-01-15T05:17:01;18302.06;;;-141.84;71.19
15260;BME280;34462;51.368;12.364;2024-01-15T05:19:29;18298.00;;;-141.84;70.57
15260;BME280;34462;51.368;12.364;2024-01-15T05:21:58;18324.41;;;-141.84;70.04
15260;BME280;34462;51.368;12.364;2024-01-15T05:24:27;18316.28;;;-141.84;69.62
15260;BME280;34462;51.368;12.364;2024-01-15T05:26:55;18306.13;;;-141.84;69.42
15260;BME280;34462;51.368;12.364;2024-01-15T05:29:24;18308.16;;;-141.84;69.23
15260;BME280;34462;51.368;12.364;2024-01-15T05:31:53;18281.75;;;-141.84;69.81
15260;BME280;34462;51.368;12.364;2024-01-15T05:34:26;18277.69;;;-141.84;70.22
15260;BME280;34462;51.368;12.364;2024-01-15T05:36:55;18326.44;;;-141.84;70.57
15260;BME280;34462;51.368;12.364;2024-01-15T05:39:25;18285.81;;;-141.84;70.88
15260;BME280;34462;51.368;12.364;2024-01-15T05:41:54;18322.38;;;-141.84;71.00
15260;BME280;34462;51.368;12.364;2024-01-15T05:44:23;18310.19;;;-141.84;70.92
15260;BME280;34462;51.368;12.364;2024-01-15T05:46:52;18322.38;;;-141.84;71.15
15260;BME280;34462;51.368;12.364;2024-01-15T05:49:21;18304.09;;;-141.84;70.01
15260;BME280;34462;51.368;12.364;2024-01-15T05:51:50;18306.13;;;-141.84;69.67
15260;BME280;34462;51.368;12.364;2024-01-15T05:54:18;18306.13;;;-141.84;69.85
15260;BME280;34462;51.368;12.364;2024-01-15T05:56:48;18277.69;;;-141.84;69.43
15260;BME280;34462;51.368;12.364;2024-01-15T05:59:16;18267.53;;;-141.84;69.42
15260;BME280;34462;51.368;12.364;2024-01-15T06:01:45;18306.13;;;-141.84;70.04
15260;BME280;34462;51.368;12.364;2024-01-15T06:04:15;18304.09;;;-141.84;69.39
15260;BME280;34462;51.368;12.364;2024-01-15T06:06:43;18318.31;;;-141.84;69.20
15260;BME280;34462;51.368;12.364;2024-01-15T06:09:12;18300.03;;;-141.84;69.66
15260;BME280;34462;51.368;12.364;2024-01-15T06:11:41;18350.81;;;-141.84;70.48
15260;BME280;34462;51.368;12.364;2024-01-15T06:14:10;18306.13;;;-141.84;69.78
15260;BME280;34462;51.368;12.364;2024-01-15T06:16:38;18324.41;;;-141.84;69.85
15260;BME280;34462;51.368;12.364;2024-01-15T06:19:07;18332.53;;;-141.84;69.25
15260;BME280;34462;51.368;12.364;2024-01-15T06:21:37;18308.16;;;-141.84;69.01
15260;BME280;34462;51.368;12.364;2024-01-15T06:24:08;18336.59;;;-141.84;69.65
15260;BME280;34462;51.368;12.364;2024-01-15T06:26:37;18326.44;;;-141.84;69.00
15260;BME280;34462;51.368;12.364;2024-01-15T06:29:06;18324.41;;;-141.84;68.57
15260;BME280;34462;51.368;12.364;2024-01-15T06:31:35;18273.63;;;-141.84;68.73
15260;BME280;34462;51.368;12.364;2024-01-15T06:34:04;18310.19;;;-141.84;69.19
15260;BME280;34462;51.368;12.364;2024-01-15T06:36:32;18283.78;;;-141.84;69.27
15260;BME280;34462;51.368;12.364;2024-01-15T06:39:02;18338.63;;;-141.84;69.16
15260;BME280;34462;51.368;12.364;2024-01-15T06:41:32;18277.69;;;-141.84;69.13
15260;BME280;34462;51.368;12.364;2024-01-15T06:44:04;18318.31;;;-141.84;69.40
15260;BME280;34462;51.368;12.364;2024-01-15T06:46:34;18312.22;;;-141.84;69.20
15260;BME280;34462;51.368;12.364;2024-01-15T06:49:03;18318.31;;;-141.84;69.41
15260;BME280;34462;51.368;12.364;2024-01-15T06:51:31;18320.34;;;-141.84;68.94
15260;BME280;34462;51.368;12.364;2024-01-15T06:54:01;18322.38;;;-141.84;69.49
15260;BME280;34462;51.368;12.364;2024-01-15T06:56:30;18302.06;;;-141.84;69.17
15260;BME280;34462;51.368;12.364;2024-01-15T06:58:59;18308.16;;;-141.84;68.90
15260;BME280;34462;51.368;12.364;2024-01-15T07:01:28;18310.19;;;-141.84;68.69
15260;BME280;34462;51.368;12.364;2024-01-15T07:03:58;18298.00;;;-141.84;68.81
15260;BME280;34462;51.368;12.364;2024-01-15T07:06:26;18304.09;;;-141.84;69.21
15260;BME280;34462;51.368;12.364;2024-01-15T07:08:55;18300.03;;;-141.84;69.23
15260;BME280;34462;51.368;12.364;2024-01-15T07:11:24;18310.19;;;-141.84;68.70
15260;BME280;34462;51.368;12.364;2024-01-15T07:13:53;18326.44;;;-141.84;68.46
15260;BME280;34462;51.368;12.364;2024-01-15T07:16:21;18295.97;;;-141.84;68.67
15260;BME280;34462;51.368;12.364;2024-01-15T07:19:04;18308.16;;;-141.84;69.04
15260;BME280;34462;51.368;12.364;2024-01-15T07:21:33;18269.56;;;-141.84;68.24
15260;BME280;34462;51.368;12.364;2024-01-15T07:24:01;18279.72;;;-141.84;67.89
15260;BME280;34462;51.368;12.364;2024-01-15T07:26:32;18338.63;;;-141.84;68.50
15260;BME280;34462;51.368;12.364;2024-01-15T07:29:00;18318.31;;;-141.84;68.68
15260;BME280;34462;51.368;12.364;2024-01-15T07:31:29;18300.03;;;-141.84;68.50
15260;BME280;34462;51.368;12.364;2024-01-15T07:33:57;18298.00;;;-141.84;68.50
15260;BME280;34462;51.368;12.364;2024-01-15T07:36:32;18334.56;;;-141.84;68.75
15260;BME280;34462;51.368;12.364;2024-01-15T07:39:03;18324.41;;;-141.84;68.64
15260;BME280;34462;51.368;12.364;2024-01-15T07:41:37;18291.91;;;-141.84;68.74
15260;BME280;34462;51.368;12.364;2024-01-15T07:44:06;18326.44;;;-141.84;69.90
15260;BME280;34462;51.368;12.364;2024-01-15T07:46:34;18314.25;;;-141.84;69.40
15260;BME280;34462;51.368;12.364;2024-01-15T07:49:05;18316.28;;;-141.84;69.57
15260;BME280;34462;51.368;12.364;2024-01-15T07:51:34;18334.56;;;-141.84;70.01
15260;BME280;34462;51.368;12.364;2024-01-15T07:54:05;18336.59;;;-141.84;70.09
15260;BME280;34462;51.368;12.364;2024-01-15T07:56:35;18302.06;;;-141.84;70.11
15260;BME280;34462;51.368;12.364;2024-01-15T07:59:22;18348.78;;;-141.84;70.51
15260;BME280;34462;51.368;12.364;2024-01-15T08:01:52;18314.25;;;-141.84;69.87
15260;BME280;34462;51.368;12.364;2024-01-15T08:04:25;18320.34;;;-141.84;69.57
15260;BME280;34462;51.368;12.364;2024-01-15T08:06:54;18332.53;;;-141.84;68.30
15260;BME280;34462;51.368;12.364;2024-01-15T08:09:26;18326.44;;;-141.84;67.64
15260;BME280;34462;51.368;12.364;2024-01-15T08:11:57;18300.03;;;-141.84;66.79
15260;BME280;34462;51.368;12.364;2024-01-15T08:14:26;18316.28;;;-141.84;67.10
15260;BME280;34462;51.368;12.364;2024-01-15T08:16:54;18293.94;;;-141.84;66.78
15260;BME280;34462;51.368;12.364;2024-01-15T08:19:25;18302.06;;;-141.84;66.20
15260;BME280;34462;51.368;12.364;2024-01-15T08:21:54;18295.97;;;-141.84;66.28
15260;BME280;34462;51.368;12.364;2024-01-15T08:24:24;18291.91;;;-141.84;66.37
15260;BME280;34462;51.368;12.364;2024-01-15T08:26:53;18300.03;;;-141.84;66.12
15260;BME280;34462;51.368;12.364;2024-01-15T08:29:27;18310.19;;;-141.84;66.26
15260;BME280;34462;51.368;12.364;2024-01-15T08:31:56;18316.28;;;-141.84;65.30
15260;BME280;34462;51.368;12.364;2024-01-15T08:34:26;18324.41;;;-141.84;64.92
15260;BME280;34462;51.368;12.364;2024-01-15T08:36:58;18318.31;;;-141.84;65.11
15260;BME280;34462;51.368;12.364;2024-01-15T08:39:30;18302.06;;;-141.84;65.36
15260;BME280;34462;51.368;12.364;2024-01-15T08:41:59;18308.16;;;-141.84;65.81
15260;BME280;34462;51.368;12.364;2024-01-15T08:44:33;18318.31;;;-141.84;65.04
15260;BME280;34462;51.368;12.364;2024-01-15T08:47:06;18287.84;;;-141.84;65.36
15260;BME280;34462;51.368;12.364;2024-01-15T08:49:34;18304.09;;;-141.84;65.13
15260;BME280;34462;51.368;12.364;2024-01-15T08:52:06;18314.25;;;-141.84;65.79
15260;BME280;34462;51.368;12.364;2024-01-15T08:54:34;18293.94;;;-141.84;65.34
15260;BME280;34462;51.368;12.364;2024-01-15T08:57:06;18298.00;;;-141.84;64.87
15260;BME280;34462;51.368;12.364;2024-01-15T08:59:36;18312.22;;;-141.84;64.70
15260;BME280;34462;51.368;12.364;2024-01-15T09:02:06;18338.63;;;-141.84;63.96
15260;BME280;34462;51.368;12.364;2024-01-15T09:04:34;18346.75;;;-141.84;62.02
15260;BME280;34462;51.368;12.364;2024-01-15T09:07:06;18338.63;;;-141.84;61.51
15260;BME280;34462;51.368;12.364;2024-01-15T09:09:35;18308.16;;;-141.84;61.39
15260;BME280;34462;51.368;12.364;2024-01-15T09:12:06;18316.28;;;-141.84;62.09
15260;BME280;34462;51.368;12.364;2024-01-15T09:14:36;18334.56;;;-141.84;62.34
15260;BME280;34462;51.368;12.364;2024-01-15T09:17:06;18330.50;;;-141.84;62.64
15260;BME280;34462;51.368;12.364;2024-01-15T09:19:35;18326.44;;;-141.84;63.10
15260;BME280;34462;51.368;12.364;2024-01-15T09:22:05;18324.41;;;-141.84;63.11
15260;BME280;34462;51.368;12.364;2024-01-15T09:24:33;18328.47;;;-141.84;62.91
15260;BME280;34462;51.368;12.364;2024-01-15T09:27:05;18326.44;;;-141.84;63.14
15260;BME280;34462;51.368;12.364;2024-01-15T09:29:33;18328.47;;;-141.84;63.10
15260;BME280;34462;51.368;12.364;2024-01-15T09:32:07;18298.00;;;-141.84;63.80
15260;BME280;34462;51.368;12.364;2024-01-15T09:34:36;18316.28;;;-141.84;65.08
15260;BME280;34462;51.368;12.364;2024-01-15T09:37:06;18342.69;;;-141.84;64.29
15260;BME280;34462;51.368;12.364;2024-01-15T09:39:34;18310.19;;;-141.84;64.83
15260;BME280;34462;51.368;12.364;2024-01-15T09:42:06;18300.03;;;-141.84;64.88
15260;BME280;34462;51.368;12.364;2024-01-15T09:44:35;18300.03;;;-141.84;65.47
15260;BME280;34462;51.368;12.364;2024-01-15T09:47:07;18324.41;;;-141.84;65.62
15260;BME280;34462;51.368;12.364;2024-01-15T09:49:36;18346.75;;;-141.84;65.60
15260;BME280;34462;51.368;12.364;2024-01-15T09:52:11;18322.38;;;-141.84;65.04
15260;BME280;34462;51.368;12.364;2024-01-15T09:54:45;18328.47;;;-141.84;64.43
15260;BME280;34462;51.368;12.364;2024-01-15T09:57:15;18316.28;;;-141.84;63.47
15260;BME280;34462;51.368;12.364;2024-01-15T09:59:47;18342.69;;;-141.84;62.98
15260;BME280;34462;51.368;12.364;2024-01-15T10:02:17;18334.56;;;-141.84;62.99
15260;BME280;34462;51.368;12.364;2024-01-15T10:04:46;18306.13;;;-141.84;62.44
15260;BME280;34462;51.368;12.364;2024-01-15T10:07:16;18328.47;;;-141.84;62.92
15260;BME280;34462;51.368;12.364;2024-01-15T10:09:47;18326.44;;;-141.84;62.88
15260;BME280;34462;51.368;12.364;2024-01-15T10:12:16;18308.16;;;-141.84;63.53
15260;BME280;34462;51.368;12.364;2024-01-15T10:14:46;18334.56;;;-141.84;63.66
15260;BME280;34462;51.368;12.364;2024-01-15T10:17:16;18320.34;;;-141.84;63.91
15260;BME280;34462;51.368;12.364;2024-01-15T10:19:46;18318.31;;;-141.84;64.53
15260;BME280;34462;51.368;12.364;2024-01-15T10:22:17;18320.34;;;-141.84;64.39
15260;BME280;34462;51.368;12.364;2024-01-15T10:24:46;18342.69;;;-141.84;65.11
15260;BME280;34462;51.368;12.364;2024-01-15T10:27:16;18330.50;;;-141.84;64.21
15260;BME280;34462;51.368;12.364;2024-01-15T10:29:46;18316.28;;;-141.84;64.12
15260;BME280;34462;51.368;12.364;2024-01-15T10:32:16;18330.50;;;-141.84;63.00
15260;BME280;34462;51.368;12.364;2024-01-15T10:34:46;18340.66;;;-141.84;63.05
15260;BME280;34462;51.368;12.364;2024-01-15T10:37:15;18320.34;;;-141.84;64.04
15260;BME280;34462;51.368;12.364;2024-01-15T10:39:46;18324.41;;;-141.84;64.22
15260;BME280;34462;51.368;12.364;2024-01-15T10:42:15;18326.44;;;-141.84;64.13
15260;BME280;34462;51.368;12.364;2024-01-15T10:44:46;18332.53;;;-141.84;63.45
15260;BME280;34462;51.368;12.364;2024-01-15T10:47:16;18322.38;;;-141.84;62.91
15260;BME280;34462;51.368;12.364;2024-01-15T10:49:46;18346.75;;;-141.84;63.72
15260;BME280;34462;51.368;12.364;2024-01-15T10:52:15;18334.56;;;-141.84;63.10
15260;BME280;34462;51.368;12.364;2024-01-15T10:54:47;18346.75;;;-141.84;63.21
15260;BME280;34462;51.368;12.364;2024-01-15T10:57:17;18316.28;;;-141.84;63.21
15260;BME280;34462;51.368;12.364;2024-01-15T10:59:48;18348.78;;;-141.84;63.49
15260;BME280;34462;51.368;12.364;2024-01-15T11:02:18;18332.53;;;-141.84;63.18
15260;BME280;34462;51.368;12.364;2024-01-15T11:04:52;18340.66;;;-141.84;63.16
15260;BME280;34462;51.368;12.364;2024-01-15T11:07:25;18314.25;;;-141.84;63.06
15260;BME280;34462;51.368;12.364;2024-01-15T11:09:55;18356.91;;;-141.84;62.83
15260;BME280;34462;51.368;12.364;2024-01-15T11:12:26;18338.63;;;-141.84;62.91
15260;BME280;34462;51.368;12.364;2024-01-15T11:15:04;18363.00;;;-141.84;62.40
15260;BME280;34462;51.368;12.364;2024-01-15T11:18:01;18346.75;;;-141.84;62.47
15260;BME280;34462;51.368;12.364;2024-01-15T11:20:38;18330.50;;;-141.84;62.84
15260;BME280;34462;51.368;12.364;2024-01-15T11:23:09;18326.44;;;-141.84;62.16
15260;BME280;34462;51.368;12.364;2024-01-15T11:25:38;18326.44;;;-141.84;62.29
15260;BME280;34462;51.368;12.364;2024-01-15T11:28:11;18334.56;;;-141.84;62.52
15260;BME280;34462;51.368;12.364;2024-01-15T11:31:00;18338.63;;;-141.84;62.64
15260;BME280;34462;51.368;12.364;2024-01-15T11:33:34;18352.84;;;-141.84;62.69
15260;BME280;34462;51.368;12.364;2024-01-15T11:36:05;18363.00;;;-141.84;62.56
15260;BME280;34462;51.368;12.364;2024-01-15T11:38:34;18365.03;;;-141.84;62.91
15260;BME280;34462;51.368;12.364;2024-01-15T11:41:13;18342.69;;;-141.84;63.32
15260;BME280;34462;51.368;12.364;2024-01-15T11:43:45;18342.69;;;-141.84;63.75
15260;BME280;34462;51.368;12.364;2024-01-15T11:46:13;18336.59;;;-141.84;63.20
15260;BME280;34462;51.368;12.364;2024-01-15T11:48:52;18336.59;;;-141.84;63.03
15260;BME280;34462;51.368;12.364;2024-01-15T11:51:34;18330.50;;;-141.84;63.16
15260;BME280;34462;51.368;12.364;2024-01-15T11:54:08;18373.16;;;-141.84;62.98
15260;BME280;34462;51.368;12.364;2024-01-15T11:56:39;18338.63;;;-141.84;62.58
15260;BME280;34462;51.368;12.364;2024-01-15T11:59:11;18332.53;;;-141.84;62.87
15260;BME280;34462;51.368;12.364;2024-01-15T12:01:40;18358.94;;;-141.84;61.48
15260;BME280;34462;51.368;12.364;2024-01-15T12:04:14;18379.25;;;-141.84;61.08
15260;BME280;34462;51.368;12.364;2024-01-15T12:06:46;18375.19;;;-141.84;60.28
15260;BME280;34462;51.368;12.364;2024-01-15T12:09:15;18375.19;;;-141.84;59.98
15260;BME280;34462;51.368;12.364;2024-01-15T12:12:02;18363.00;;;-141.84;59.85
15260;BME280;34462;51.368;12.364;2024-01-15T12:14:34;18346.75;;;-141.84;60.10
15260;BME280;34462;51.368;12.364;2024-01-15T12:17:05;18356.91;;;-141.84;60.27
15260;BME280;34462;51.368;12.364;2024-01-15T12:19:35;18356.91;;;-141.84;60.78
15260;BME280;34462;51.368;12.364;2024-01-15T12:22:06;18358.94;;;-141.84;60.96
15260;BME280;34462;51.368;12.364;2024-01-15T12:24:35;18352.84;;;-141.84;61.13
15260;BME280;34462;51.368;12.364;2024-01-15T12:27:06;18383.31;;;-141.84;61.38
15260;BME280;34462;51.368;12.364;2024-01-15T12:29:35;18367.06;;;-141.84;60.82
15260;BME280;34462;51.368;12.364;2024-01-15T12:32:05;18373.16;;;-141.84;61.42
15260;BME280;34462;51.368;12.364;2024-01-15T12:34:38;18373.16;;;-141.84;60.54
15260;BME280;34462;51.368;12.364;2024-01-15T12:37:08;18383.31;;;-141.84;60.46
15260;BME280;34462;51.368;12.364;2024-01-15T12:39:38;18373.16;;;-141.84;60.80
15260;BME280;34462;51.368;12.364;2024-01-15T12:42:08;18371.13;;;-141.84;60.96
15260;BME280;34462;51.368;12.364;2024-01-15T12:44:37;18375.19;;;-141.84;61.27